createdAt,value
2019-05-23T00:01:48.728Z,12.50
2019-05-23T00:06:53.087Z,12.60
2019-05-23T00:12:03.766Z,12.50
2019-05-23T00:17:12.027Z,12.40
2019-05-23T00:22:17.467Z,12.60
2019-05-23T00:27:21.673Z,12.50
2019-05-23T00:32:31.953Z,12.40
2019-05-23T00:37:37.461Z,12.50
2019-05-23T00:42:41.887Z,12.60
2019-05-23T00:47:46.669Z,12.40
2019-05-23T00:52:50.849Z,12.30
2019-05-23T00:57:55.774Z,12.30
2019-05-23T01:03:00.022Z,12.40
2019-05-23T01:08:03.972Z,12.30
2019-05-23T01:13:08.528Z,12.20
2019-05-23T01:18:14.199Z,12.30
2019-05-23T01:23:19.830Z,12.30
2019-05-23T01:28:23.521Z,12.20
2019-05-23T01:33:28.545Z,12.20
2019-05-23T01:38:32.701Z,12.20
2019-05-23T01:43:36.482Z,12.10
2019-05-23T01:48:41.746Z,12.10
2019-05-23T01:53:46.960Z,12.00
2019-05-23T01:58:51.058Z,12.00
2019-05-23T02:03:54.932Z,12.00
2019-05-23T02:08:59.058Z,12.00
2019-05-23T02:14:03.391Z,12.00
2019-05-23T02:19:07.543Z,11.90
2019-05-23T02:24:12.101Z,11.90
2019-05-23T02:29:16.161Z,11.80
2019-05-23T02:34:20.558Z,11.90
2019-05-23T02:39:46.393Z,11.90
2019-05-23T02:44:52.687Z,11.90
2019-05-23T02:49:59.128Z,11.70
2019-05-23T02:55:03.466Z,11.60
2019-05-23T03:00:52.400Z,11.50
2019-05-23T03:05:44.577Z,11.40
2019-05-23T03:11:18.778Z,11.40
2019-05-23T03:16:27.414Z,11.30
2019-05-23T03:21:31.184Z,11.30
2019-05-23T03:27:00.130Z,11.30
2019-05-23T03:32:13.272Z,11.30
2019-05-23T03:37:19.114Z,11.40
2019-05-23T03:42:24.430Z,11.30
2019-05-23T03:47:30.311Z,11.50
2019-05-23T03:52:35.077Z,11.40
2019-05-23T03:57:39.178Z,11.50
2019-05-23T04:02:44.653Z,11.50
2019-05-23T04:07:49.155Z,11.50
2019-05-23T04:12:53.031Z,11.50
2019-05-23T04:17:57.233Z,11.60
2019-05-23T04:23:01.254Z,11.70
2019-05-23T04:28:05.925Z,11.60
2019-05-23T04:33:09.887Z,11.60
2019-05-23T04:38:13.667Z,11.70
2019-05-23T04:43:17.735Z,11.70
2019-05-23T04:48:21.694Z,11.80
2019-05-23T04:53:25.623Z,12.00
2019-05-23T04:58:29.691Z,12.20
2019-05-23T05:03:33.475Z,12.30
2019-05-23T05:08:37.245Z,12.40
2019-05-23T05:13:42.110Z,12.40
2019-05-23T05:18:46.357Z,12.50
2019-05-23T05:23:50.284Z,12.60
2019-05-23T05:28:54.812Z,12.60
2019-05-23T05:33:59.094Z,12.70
2019-05-23T05:39:03.176Z,12.80
2019-05-23T05:44:07.041Z,12.80
2019-05-23T05:49:12.653Z,12.80
2019-05-23T05:54:16.563Z,12.90
2019-05-23T05:59:20.599Z,13.00
2019-05-23T06:04:25.796Z,13.10
2019-05-23T06:09:31.350Z,13.20
2019-05-23T06:14:35.276Z,13.40
2019-05-23T06:19:39.784Z,13.30
2019-05-23T06:24:49.526Z,13.30
2019-05-23T06:29:49.157Z,13.50
2019-05-23T06:34:54.907Z,13.70
2019-05-23T06:39:58.778Z,13.80
2019-05-23T06:45:04.901Z,14.20
2019-05-23T06:50:12.820Z,14.40
2019-05-23T06:55:16.740Z,14.70
2019-05-23T07:00:23.046Z,15.00
2019-05-23T07:05:32.072Z,15.10
2019-05-23T07:10:35.930Z,15.60
2019-05-23T07:15:39.988Z,16.10
2019-05-23T07:20:44.586Z,16.50
2019-05-23T07:25:48.953Z,16.30
2019-05-23T07:30:52.826Z,15.70
2019-05-23T07:35:56.693Z,15.60
2019-05-23T07:41:01.003Z,16.10
2019-05-23T07:46:06.963Z,16.60
2019-05-23T07:51:10.770Z,16.80
2019-05-23T07:56:17.865Z,17.00
2019-05-23T08:01:23.895Z,16.70
2019-05-23T08:06:27.718Z,15.90
2019-05-23T08:11:32.351Z,15.70
2019-05-23T08:16:36.434Z,16.30
2019-05-23T08:21:40.235Z,16.50
2019-05-23T08:26:45.325Z,16.40
2019-05-23T08:31:49.536Z,16.10
2019-05-23T08:36:53.538Z,15.80
2019-05-23T08:41:57.859Z,16.30
2019-05-23T08:47:01.718Z,17.30
2019-05-23T08:52:05.718Z,17.70
2019-05-23T08:57:11.138Z,17.70
2019-05-23T09:02:16.675Z,17.00
2019-05-23T09:07:20.957Z,17.90
2019-05-23T09:12:25.264Z,20.50
2019-05-23T09:17:29.248Z,19.40
2019-05-23T09:22:33.325Z,20.20
2019-05-23T09:27:37.349Z,23.20
2019-05-23T09:32:41.739Z,22.50
2019-05-23T09:37:46.973Z,23.20
2019-05-23T09:42:51.510Z,24.50
2019-05-23T09:47:55.327Z,25.60
2019-05-23T09:52:59.139Z,26.70
2019-05-23T09:58:02.997Z,28.30
2019-05-23T10:03:07.910Z,28.00
2019-05-23T10:08:11.888Z,27.50
2019-05-23T10:13:16.565Z,28.80
2019-05-23T10:18:21.113Z,29.40
2019-05-23T10:23:24.843Z,31.10
2019-05-23T10:28:28.639Z,30.40
2019-05-23T10:33:32.567Z,29.80
2019-05-23T10:38:36.559Z,30.80
2019-05-23T10:43:40.666Z,32.20
2019-05-23T10:48:44.987Z,32.80
2019-05-23T10:53:50.486Z,34.00
2019-05-23T10:58:54.587Z,34.10
2019-05-23T11:03:59.011Z,31.80
2019-05-23T11:09:06.505Z,33.20
2019-05-23T11:14:10.955Z,33.60
2019-05-23T11:19:14.984Z,32.30
2019-05-23T11:24:19.460Z,33.00
2019-05-23T11:29:26.919Z,31.10
2019-05-23T11:34:29.731Z,31.00
2019-05-23T11:39:33.586Z,32.10
2019-05-23T11:44:37.308Z,32.00
2019-05-23T11:49:43.023Z,33.40
2019-05-23T11:54:48.099Z,34.90
2019-05-23T11:59:53.205Z,33.50
2019-05-23T12:04:59.236Z,32.80
2019-05-23T12:10:03.636Z,31.40
2019-05-23T12:15:11.313Z,30.80
2019-05-23T12:20:15.808Z,32.10
2019-05-23T12:25:23.034Z,32.60
2019-05-23T12:30:25.848Z,33.10
2019-05-23T12:35:30.374Z,33.00
2019-05-23T12:40:34.223Z,33.20
2019-05-23T12:45:38.041Z,34.20
2019-05-23T12:50:44.033Z,30.70
2019-05-23T12:55:48.077Z,31.90
2019-05-23T13:00:55.000Z,34.00
2019-05-23T13:05:58.890Z,36.10
2019-05-23T13:11:02.639Z,33.40
2019-05-23T13:16:06.539Z,33.50
2019-05-23T13:21:10.246Z,32.70
2019-05-23T13:26:14.328Z,32.20
2019-05-23T13:31:18.403Z,32.10
2019-05-23T13:36:22.338Z,32.80
2019-05-23T13:41:28.073Z,32.80
2019-05-23T13:46:32.647Z,33.70
2019-05-23T13:51:36.637Z,34.90
2019-05-23T13:56:40.557Z,34.00
2019-05-23T14:01:44.443Z,32.10
2019-05-23T14:06:48.268Z,31.70
2019-05-23T14:12:19.614Z,33.00
2019-05-23T14:17:19.941Z,31.00
2019-05-23T14:22:24.195Z,31.00
2019-05-23T14:27:34.661Z,31.60
2019-05-23T14:32:47.660Z,33.20
2019-05-23T14:37:53.310Z,33.30
2019-05-23T14:43:02.440Z,32.30
2019-05-23T14:48:17.570Z,33.00
2019-05-23T14:53:21.614Z,31.70
2019-05-23T14:58:25.699Z,31.60
2019-05-23T15:03:35.453Z,32.20
2019-05-23T15:08:50.606Z,31.40
2019-05-23T15:13:42.484Z,29.90
2019-05-23T15:18:46.365Z,28.00
2019-05-23T15:23:50.261Z,26.80
2019-05-23T15:28:53.986Z,28.00
2019-05-23T15:33:57.874Z,28.60
2019-05-23T15:39:09.520Z,29.20
2019-05-23T15:44:24.227Z,29.30
2019-05-23T15:49:14.143Z,28.60
2019-05-23T15:54:27.694Z,28.10
2019-05-23T15:59:45.067Z,26.60
2019-05-23T16:04:49.664Z,25.70
2019-05-23T16:09:53.745Z,25.60
2019-05-23T16:14:57.708Z,24.80
2019-05-23T16:20:01.586Z,24.10
2019-05-23T16:25:06.537Z,24.20
2019-05-23T16:30:10.980Z,24.10
2019-05-23T16:35:14.912Z,23.60
2019-05-23T16:40:18.988Z,23.40
2019-05-23T16:45:22.712Z,23.40
2019-05-23T16:50:26.428Z,23.50
2019-05-23T16:55:45.356Z,23.30
2019-05-23T17:01:23.231Z,23.20
2019-05-23T17:06:22.401Z,24.10
2019-05-23T17:11:51.531Z,25.20
2019-05-23T17:17:07.802Z,25.00
2019-05-23T17:22:20.603Z,25.10
2019-05-23T17:27:58.631Z,25.80
2019-05-23T17:33:03.888Z,26.00
2019-05-23T17:38:07.872Z,25.40
2019-05-23T17:43:11.684Z,24.50
2019-05-23T17:48:15.407Z,23.60
2019-05-23T17:53:19.219Z,23.40
2019-05-23T17:58:23.076Z,23.30
2019-05-23T18:03:27.427Z,23.10
2019-05-23T18:08:31.963Z,22.50
2019-05-23T18:13:37.046Z,22.30
2019-05-23T18:18:40.864Z,22.10
2019-05-23T18:23:45.707Z,21.70
2019-05-23T18:28:49.659Z,21.20
2019-05-23T18:33:53.515Z,20.90
2019-05-23T18:38:57.465Z,20.60
2019-05-23T18:44:01.321Z,20.10
2019-05-23T18:49:07.036Z,19.60
2019-05-23T18:54:11.286Z,19.30
2019-05-23T18:59:15.189Z,19.00
2019-05-23T19:04:34.364Z,18.70
2019-05-23T19:09:38.557Z,18.50
2019-05-23T19:14:42.327Z,18.10
2019-05-23T19:19:46.140Z,17.90
2019-05-23T19:24:50.008Z,17.70
2019-05-23T19:29:54.324Z,17.50
2019-05-23T19:34:58.703Z,17.50
2019-05-23T19:40:03.097Z,17.30
2019-05-23T19:45:07.211Z,17.10
2019-05-23T19:50:11.388Z,16.90
2019-05-23T19:55:15.478Z,16.50
2019-05-23T20:00:20.640Z,16.30
2019-05-23T20:05:29.172Z,16.00
2019-05-23T20:10:33.729Z,15.90
2019-05-23T20:15:37.763Z,15.70
2019-05-23T20:20:41.713Z,16.10
2019-05-23T20:25:45.865Z,15.90
2019-05-23T20:30:52.183Z,15.50
2019-05-23T20:35:56.343Z,15.40
2019-05-23T20:41:00.301Z,15.40
2019-05-23T20:46:04.405Z,15.30
2019-05-23T20:51:08.444Z,15.10
2019-05-23T20:56:12.271Z,15.10
2019-05-23T21:01:21.306Z,15.00
2019-05-23T21:06:25.010Z,14.80
2019-05-23T21:11:29.867Z,14.70
2019-05-23T21:16:33.858Z,14.50
2019-05-23T21:21:37.626Z,14.30
2019-05-23T21:26:41.427Z,14.20
2019-05-23T21:31:45.217Z,14.10
2019-05-23T21:36:48.907Z,14.00
2019-05-23T21:41:52.820Z,13.90
2019-05-23T21:46:56.528Z,13.80
2019-05-23T21:52:00.331Z,13.80
2019-05-23T21:57:04.093Z,13.60
2019-05-23T22:02:18.924Z,13.40
2019-05-23T22:07:22.710Z,13.30
2019-05-23T22:12:26.407Z,13.20
2019-05-23T22:17:30.513Z,13.10
2019-05-23T22:22:34.450Z,12.80
2019-05-23T22:27:38.210Z,12.70
2019-05-23T22:32:42.816Z,12.60
2019-05-23T22:37:46.699Z,12.50
2019-05-23T22:42:50.401Z,12.50
2019-05-23T22:47:54.506Z,12.30
2019-05-23T22:52:58.239Z,12.30
2019-05-23T22:58:02.185Z,12.20
2019-05-23T23:03:05.953Z,12.20
2019-05-23T23:08:09.694Z,12.00
2019-05-23T23:13:14.240Z,11.90
2019-05-23T23:18:17.994Z,11.90
2019-05-23T23:23:21.682Z,11.70
2019-05-23T23:28:25.773Z,11.60
2019-05-23T23:33:29.667Z,11.50
2019-05-23T23:38:33.397Z,11.50
2019-05-23T23:43:37.203Z,11.40
2019-05-23T23:48:58.713Z,11.30
2019-05-23T23:54:20.467Z,11.30
2019-05-23T23:59:23.477Z,11.00
